Latest Coastal Weather Observations for Portland Airport

IDV60701

Issued at 6:11 am EDT Friday 27 March 2015 (issued every 10 minutes, with the page automatically refreshed every 10 minutes)

About coastal observations | Map of coastal stations | Coastal observations for VIC | Marine services | Other Formats
Station Details ID: 090171 Name: CASHMORE AIRPORT Lat: -38.31 Lon: 141.47 Height: 80.9 m
Data from the previous 72 hours. | See also: Recent months at Portland Airport
Date/Time
EDT
Temp

°C
Wind Pressure Rain
since 9am
mm
Weather Cloud Vis
km
Sea
Height
m
Swell
Dir
 
Speed
knots
Gust
knots
hPa Trend Height
m
Period
s
Dir
27/06:00am 11.5 SW 11 18 1023.8 - 13.6 - Cloudy 6 - - - -
27/05:58am 11.6 SW 12 18 1023.8 - 13.6 - Partly cloudy 6 - - - -
27/05:30am 11.8 WSW 12 17 1023.7 - 13.6 - Partly cloudy 10 - - - -
27/05:00am 12.1 SW 9 14 1023.4 - 13.6 - Partly cloudy 10 - - - -
27/04:30am 12.2 SW 9 15 1023.3 - 13.6 - Partly cloudy 10 - - - -
27/04:00am 12.2 SW 11 17 1023.2 - 13.6 - Partly cloudy 10 - - - -
27/03:30am 11.9 SW 9 12 1023.1 - 13.6 - Partly cloudy 10 - - - -
27/03:00am 12.6 SW 12 18 1023.2 - 13.6 - Cloudy 10 - - - -
27/02:30am 12.7 SW 12 17 1023.0 - 13.6 - Partly cloudy 10 - - - -
27/02:00am 12.5 SW 11 15 1023.0 - 13.6 - Partly cloudy 10 - - - -
27/01:30am 12.1 SW 10 15 1022.9 - 13.6 - Partly cloudy 10 - - - -
27/01:00am 11.9 SW 12 20 1022.9 - 13.6 - Partly cloudy 10 - - - -
27/12:30am 13.0 SW 11 17 1022.9 - 13.6 - Partly cloudy 10 - - - -
27/12:00am 12.8 SW 12 21 1022.8 - 13.6 - Cloudy 28 - - - -
 
Date/Time
EDT
Temp

°C
Wind Pressure Rain
since 9am
mm
Weather Cloud Vis
km
Sea
Height
m
Swell
Dir
 
Speed
knots
Gust
knots
hPa Trend Height
m
Period
s
Dir
26/11:30pm 12.6 SW 11 17 1022.7 - 13.6 - Partly cloudy 10 - - - -
26/11:00pm 12.7 SW 12 20 1022.5 - 13.6 - Partly cloudy 10 - - - -
26/10:30pm 12.4 SW 11 17 1022.4 - 13.6 - Partly cloudy 10 - - - -
26/10:00pm 12.7 SW 13 19 1022.1 - 13.4 - Partly cloudy 10 - - - -
26/09:30pm 12.3 SW 13 23 1021.7 - 13.4 - Partly cloudy 10 - - - -
26/09:00pm 12.3 SW 14 21 1021.3 - 13.4 Recent precip. Cloudy 10 - - - -
26/08:33pm 12.4 SW 15 21 1021.0 - 13.4 - Partly cloudy 10 - - - -
26/08:30pm 12.4 SW 15 21 1021.0 - 13.4 - Partly cloudy 10 - - - -
26/08:12pm 12.3 SW 17 25 1020.7 - 13.0 - Partly cloudy 6 - - - -
26/08:00pm 12.7 WSW 15 22 1020.4 - 12.4 - Partly cloudy 10 - - - -
26/07:47pm 12.4 WSW 15 21 1020.2 - 12.4 - Partly cloudy 10 - - - -
26/07:33pm 12.8 SW 15 25 1020.0 - 12.4 - Partly cloudy 6 - - - -
26/07:31pm 13.0 WSW 16 25 1020.0 - 12.4 - Partly cloudy 6 - - - -
26/07:30pm 13.0 WSW 17 25 1019.9 - 12.2 - Partly cloudy 7 - - - -
26/07:08pm 12.8 WSW 17 24 1019.4 - 11.6 - Partly cloudy 10 - - - -
26/07:00pm 12.6 WSW 18 26 1019.4 - 11.6 - Partly cloudy 10 - - - -
26/06:44pm 12.8 WSW 19 31 1019.1 - 11.6 - Partly cloudy 10 - - - -
26/06:30pm 12.9 WSW 15 27 1018.6 - 11.6 - Partly cloudy 10 - - - -
26/06:28pm 12.7 WSW 15 27 1018.6 - 11.6 - Partly cloudy 10 - - - -
26/06:26pm 12.5 WSW 13 21 1018.7 - 11.6 - Partly cloudy 10 - - - -
26/06:21pm 12.1 SW 14 20 1018.8 - 11.6 - Partly cloudy 10 - - - -
26/06:00pm 12.7 WSW 17 28 1018.6 - 10.6 Rain Cloudy 4 - - - -
26/05:30pm 12.9 WSW 20 32 1018.0 - 8.6 - Partly cloudy 4 - - - -
26/05:00pm 12.9 WSW 23 33 1017.5 - 7.0 - Partly cloudy 8 - - - -
26/04:58pm 12.9 WSW 23 33 1017.4 - 7.0 - Partly cloudy 8 - - - -
26/04:45pm 13.0 WSW 22 30 1017.5 - 6.8 - Partly cloudy 6 - - - -
26/04:34pm 13.1 WSW 25 35 1017.4 - 6.6 - Cloudy 10 - - - -
26/04:30pm 13.1 WSW 25 34 1017.2 - 6.6 - Cloudy 10 - - - -
26/04:25pm 13.4 WSW 22 34 1017.3 - 6.6 - Partly cloudy 9 - - - -
26/04:06pm 12.9 W 26 36 1017.1 - 6.4 - Partly cloudy 6 - - - -
26/04:04pm 12.9 W 26 36 1016.9 - 6.2 - Partly cloudy 10 - - - -
26/04:00pm 13.0 W 27 37 1016.8 - 6.2 - Cloudy 10 - - - -
26/03:50pm 13.1 W 27 37 1016.9 - 6.2 - Partly cloudy 6 - - - -
26/03:46pm 13.1 W 28 37 1016.8 - 6.2 - Partly cloudy 6 - - - -
26/03:35pm 12.9 W 29 41 1016.6 - 6.0 - Partly cloudy 10 - - - -
26/03:30pm 12.8 W 31 41 1016.6 - 6.0 - Partly cloudy 10 - - - -
26/03:09pm 12.6 W 26 38 1016.7 - 5.8 - Partly cloudy 6 - - - -
26/03:00pm 12.7 W 27 40 1016.5 - 5.6 Rain Cloudy 8 - - - -
26/02:36pm 12.4 W 28 39 1016.5 - 5.4 - Partly cloudy 10 - - - -
26/02:30pm 12.3 W 26 41 1016.4 - 5.4 - Partly cloudy 10 - - - -
26/02:04pm 12.1 W 28 40 1016.3 - 5.4 - Partly cloudy 5 - - - -
26/02:00pm 12.2 W 28 40 1016.4 - 5.0 - Partly cloudy 6 - - - -
26/01:31pm 12.0 W 27 40 1016.2 - 4.6 - Partly cloudy 6 - - - -
26/01:30pm 11.9 W 27 40 1016.2 - 4.6 - Partly cloudy 7 - - - -
26/01:28pm 12.0 W 27 40 1016.1 - 4.4 - Partly cloudy 10 - - - -
26/01:00pm 11.2 W 24 36 1016.5 - 3.8 - Partly cloudy 4 - - - -
26/12:59pm 11.3 W 24 35 1016.4 - 3.8 - Partly cloudy 6 - - - -
26/12:37pm 11.8 W 23 33 1016.6 - 3.4 - Partly cloudy 10 - - - -
26/12:30pm 11.0 W 23 35 1016.7 - 3.4 - Partly cloudy 8 - - - -
26/12:09pm 11.0 W 23 33 1016.6 - 2.6 - Partly cloudy 6 - - - -
26/12:08pm 11.1 W 22 33 1016.7 - 2.6 - Partly cloudy 7 - - - -
26/12:00pm 11.1 W 21 30 1016.6 - 2.6 Rain Cloudy 9 - - - -
26/11:58am 11.1 W 21 30 1016.7 - 2.6 - Partly cloudy 10 - - - -
26/11:39am 10.7 W 22 38 1016.7 - 2.2 - Partly cloudy 6 - - - -
26/11:30am 10.8 WNW 21 30 1016.8 - 1.4 - Partly cloudy 10 - - - -
26/11:22am 10.8 W 20 30 1016.8 - 1.4 - Partly cloudy 10 - - - -
26/11:08am 9.9 W 25 38 1016.9 - 1.4 - Partly cloudy 6 - - - -
26/11:01am 11.7 WNW 23 36 1016.5 - 0.8 - Partly cloudy 10 - - - -
26/11:00am 11.9 WNW 23 32 1016.4 - 0.8 - Partly cloudy 10 - - - -
26/10:43am 12.1 W 24 35 1016.4 - 0.8 - Partly cloudy 10 - - - -
26/10:30am 12.5 W 22 29 1016.3 - 0.8 - Partly cloudy 10 - - - -
26/10:20am 12.8 W 22 34 1016.3 - 0.8 - Partly cloudy 10 - - - -
26/10:07am 11.1 W 21 31 1016.5 - 0.6 - Partly cloudy 6 - - - -
26/10:04am 11.4 W 23 31 1016.3 - 0.6 - Partly cloudy 6 - - - -
26/10:00am 12.5 W 22 31 1016.4 - 0.0 - Partly cloudy 10 - - - -
26/09:30am 12.3 W 21 32 1016.1 - 0.0 - Partly cloudy 10 - - - -
26/09:00am 10.5 W 22 37 1016.2 - 14.8 Recent precip. Cloudy 10 - - - -
26/08:53am 12.0 W 19 29 1016.1 - 14.8 - Partly cloudy 10 - - - -
26/08:30am 10.6 W 18 25 1016.1 - 14.8 - Partly cloudy 10 - - - -
26/08:11am 11.0 W 17 28 1015.9 - 14.6 - Partly cloudy 10 - - - -
26/08:00am 10.6 WSW 18 25 1015.7 - 14.6 - Partly cloudy 10 - - - -
26/07:30am 9.4 W 14 23 1015.4 - 14.6 - Partly cloudy 10 - - - -
26/07:15am 9.5 W 12 22 1015.4 - 14.6 - Partly cloudy 10 - - - -
26/07:05am 7.8 SW 8 11 1015.5 - 14.6 - Partly cloudy 10 - - - -
26/07:00am 7.7 WSW 10 18 1015.5 - 14.6 - Partly cloudy 10 - - - -
26/06:48am 8.5 W 19 41 1015.6 - 14.4 - Partly cloudy 6 - - - -
26/06:46am 9.4 W 17 41 1015.4 - 14.2 - Partly cloudy 10 - - - -
26/06:45am 10.2 W 15 28 1015.4 - 14.0 - Partly cloudy 10 - - - -
26/06:30am 10.6 W 15 24 1015.0 - 14.0 - Partly cloudy 10 - - - -
26/06:00am 10.3 WSW 17 22 1015.0 - 14.0 Recent precip. Mostly cloudy 10 - - - -
26/05:41am 10.0 W 16 26 1014.7 - 14.0 - Partly cloudy 10 - - - -
26/05:30am 9.7 W 13 18 1014.8 - 14.0 - Partly cloudy 10 - - - -
26/05:00am 9.0 W 14 18 1014.7 - 13.8 - Partly cloudy 10 - - - -
26/04:37am 9.2 WSW 19 33 1014.6 - 13.6 - Partly cloudy 10 - - - -
26/04:30am 9.4 WSW 16 23 1014.7 - 13.6 - Partly cloudy 10 - - - -
26/04:00am 9.2 WSW 15 22 1014.7 - 13.6 - Partly cloudy 10 - - - -
26/03:30am 10.5 W 23 34 1014.2 - 13.4 - Partly cloudy 10 - - - -
26/03:12am 11.7 WNW 18 29 1013.9 - 13.4 - Partly cloudy 10 - - - -
26/03:00am 11.8 W 16 25 1014.0 - 13.4 - Cloudy 10 - - - -
26/02:59am 11.8 W 15 25 1014.0 - 13.4 - Partly cloudy 10 - - - -
26/02:30am 11.0 W 14 20 1014.1 - 13.4 - Partly cloudy 10 - - - -
26/02:00am 10.9 WNW 12 17 1014.3 - 13.4 - Partly cloudy 10 - - - -
26/01:30am 11.2 W 14 19 1014.2 - 13.4 - Partly cloudy 10 - - - -
26/01:00am 11.1 WNW 12 17 1014.0 - 13.4 - Partly cloudy 10 - - - -
26/12:30am 10.5 W 12 17 1014.2 - 13.4 - Partly cloudy 10 - - - -
26/12:00am 10.1 W 11 15 1014.2 - 13.4 Recent precip. Mostly clear 10 - - - -
 
Date/Time
EDT
Temp

°C
Wind Pressure Rain
since 9am
mm
Weather Cloud Vis
km
Sea
Height
m
Swell
Dir
 
Speed
knots
Gust
knots
hPa Trend Height
m
Period
s
Dir
25/11:30pm 9.3 W 11 13 1014.2 - 13.4 - Partly cloudy 10 - - - -
25/11:08pm 9.6 W 20 30 1014.3 - 13.2 - Partly cloudy 9 - - - -
25/11:00pm 10.2 W 19 30 1014.2 - 13.2 - Partly cloudy 10 - - - -
25/10:56pm 10.4 W 15 30 1014.0 - 13.0 - Partly cloudy 10 - - - -
25/10:30pm 9.1 W 11 15 1013.9 - 13.0 - Partly cloudy 10 - - - -
25/10:00pm 9.2 NNW 11 18 1013.6 - 13.0 - Partly cloudy 10 - - - -
25/09:30pm 9.3 NW 9 16 1013.6 - 12.8 - Partly cloudy 10 - - - -
25/09:24pm 9.3 NW 12 19 1013.9 - 12.8 - Partly cloudy 10 - - - -
25/09:02pm 9.4 NW 11 15 1013.5 - 11.8 - Partly cloudy 6 - - - -
25/09:00pm 9.5 NW 11 15 1013.7 - 11.4 Rain Mostly cloudy 7 - - - -
25/08:30pm 10.0 WNW 12 18 1013.1 - 9.8 - Partly cloudy 8 - - - -
25/08:26pm 9.9 WNW 12 18 1013.2 - 9.6 - Partly cloudy 8 - - - -
25/08:01pm 9.9 WNW 17 28 1013.3 - 7.8 - Partly cloudy 4 - - - -
25/08:00pm 10.0 WNW 18 28 1013.4 - 7.8 - Partly cloudy 4 - - - -
25/07:49pm 10.1 WNW 20 27 1013.4 - 7.0 - Partly cloudy 5 - - - -
25/07:32pm 10.0 W 22 34 1013.0 - 6.0 - Partly cloudy 4 - - - -
25/07:30pm 10.0 W 21 30 1013.2 - 6.0 - Partly cloudy 4 - - - -
25/07:16pm 10.1 W 19 32 1013.2 - 5.0 - Partly cloudy 4 - - - -
25/07:00pm 10.2 WSW 20 27 1012.6 - 4.2 - Partly cloudy 4 - - - -
25/06:39pm 11.6 WSW 17 27 1012.3 - 1.8 - Partly cloudy 3 - - - -
25/06:31pm 12.5 W 17 25 1012.0 - 1.0 - Partly cloudy 3 - - - -
25/06:30pm 12.6 W 17 25 1012.1 - 1.0 - Partly cloudy 3 - - - -
25/06:28pm 12.8 W 17 25 1012.1 - 0.8 - Partly cloudy 2 - - - -
25/06:17pm 14.1 WNW 20 29 1011.7 - 0.0 - Partly cloudy 6 - - - -
25/06:01pm 16.0 NW 18 33 1011.1 - 0.0 - Partly cloudy 10 - - - -
25/06:00pm 16.1 NW 18 27 1011.2 - 0.0 - Mostly cloudy 10 - - - -
25/05:30pm 17.9 NNW 15 22 1010.8 - 0.0 - Cloudy 10 - - - -
25/05:00pm 18.1 NNW 14 20 1010.8 - 0.0 - Partly cloudy 10 - - - -
25/04:37pm 19.0 NNW 16 26 1010.9 - 0.0 - Partly cloudy 10 - - - -
25/04:30pm 19.0 NNW 15 22 1010.9 - 0.0 - Partly cloudy 10 - - - -
25/04:00pm 18.5 NNW 16 23 1011.8 - 0.0 - Partly cloudy 10 - - - -
25/03:30pm 19.9 NNW 15 22 1012.1 - 0.0 - Partly cloudy 10 - - - -
25/03:00pm 19.4 NNW 15 24 1012.5 - 0.0 - Partly cloudy 10 - - - -
25/02:30pm 18.3 NNW 16 23 1013.0 - 0.0 - Partly cloudy 10 - - - -
25/02:01pm 18.4 NNW 15 25 1013.7 - 0.0 - Partly cloudy 10 - - - -
25/02:00pm 19.0 NNW 14 25 1013.7 - 0.0 - Partly cloudy 10 - - - -
25/01:53pm 18.7 NNW 15 25 1013.9 - 0.0 - Partly cloudy 10 - - - -
25/01:30pm 18.4 NNW 15 23 1014.1 - 0.0 - Partly cloudy 10 - - - -
25/01:04pm 17.7 NNW 15 25 1014.8 - 0.0 - Partly cloudy 10 - - - -
25/01:00pm 17.8 NNW 15 24 1014.8 - 0.0 - - 10 - - - -
25/12:30pm 16.5 NNW 15 21 1015.4 - 0.0 - - 10 - - - -
25/12:00pm 16.6 NNW 13 19 1016.0 - 0.0 - Cloudy 10 - - - -
25/11:30am 14.1 NNW 12 17 1016.5 - 0.0 - Partly cloudy 10 - - - -
25/11:00am 13.7 NNW 11 17 1016.8 - 0.0 - Cloudy 10 - - - -
25/10:30am 13.3 NNW 12 17 1017.2 - 0.0 - Cloudy 10 - - - -
25/10:00am 12.6 N 9 13 1017.0 - 0.0 - Partly cloudy 10 - - - -
25/09:30am 12.1 N 8 13 1017.4 - 0.0 - Cloudy 10 - - - -
25/09:00am 11.4 N 9 12 1017.7 - 0.0 - Cloudy 10 - - - -
25/08:30am 11.1 NNW 8 11 1017.7 - 0.0 - Cloudy 10 - - - -
25/08:00am 10.8 NNW 7 10 1017.6 - 0.0 - Cloudy 10 - - - -
25/07:30am 10.8 NNW 8 11 1017.8 - 0.0 - Cloudy 10 - - - -
25/07:00am 10.6 N 7 8 1017.6 - 0.0 - Cloudy 10 - - - -
25/06:30am 10.8 N 6 7 1017.7 - 0.0 - Cloudy 10 - - - -
25/06:00am 10.9 N 6 8 1017.7 - 0.0 - Cloudy 10 - - - -
25/05:30am 11.0 NNW 7 8 1017.9 - 0.0 - Cloudy 10 - - - -
25/05:00am 10.9 NNW 6 8 1018.1 - 0.0 - Cloudy 10 - - - -
25/04:30am 10.8 NNW 5 7 1018.3 - 0.0 - Cloudy 10 - - - -
25/04:00am 10.8 NNW 5 6 1018.5 - 0.0 - Cloudy 10 - - - -
25/03:30am 11.0 NNW 5 6 1018.9 - 0.0 - Partly cloudy 10 - - - -
25/03:00am 11.2 NNW 4 6 1019.4 - 0.0 - Cloudy 10 - - - -
25/02:30am 11.6 NNW 6 9 1019.5 - 0.0 - Cloudy 10 - - - -
25/02:00am 11.5 N 5 7 1019.8 - 0.0 - Cloudy 10 - - - -
25/01:30am 12.1 WNW 5 5 1020.3 - 0.0 - Cloudy 10 - - - -
25/01:00am 11.6 N 4 6 1020.6 - 0.0 - Cloudy 10 - - - -
25/12:30am 11.7 NNW 4 6 1020.6 - 0.0 - Cloudy 10 - - - -
25/12:00am 11.6 N 4 5 1020.6 - 0.0 - Cloudy 10 - - - -
 
Date/Time
EDT
Temp

°C
Wind Pressure Rain
since 9am
mm
Weather Cloud Vis
km
Sea
Height
m
Swell
Dir
 
Speed
knots
Gust
knots
hPa Trend Height
m
Period
s
Dir
24/11:30pm 11.8 N 4 5 1020.8 - 0.0 - Cloudy 10 - - - -
24/11:00pm 12.1 N 4 5 1021.1 - 0.0 - Cloudy 10 - - - -
24/10:30pm 12.3 N 3 4 1021.1 - 0.0 - Cloudy 10 - - - -
24/10:00pm 12.5 ENE 4 7 1021.2 - 0.0 - Cloudy 10 - - - -
24/09:30pm 12.7 CALM 0 0 1021.0 - 0.0 - Cloudy 10 - - - -
24/09:00pm 12.9 SSW 3 6 1020.8 - 0.0 - Cloudy 10 - - - -
24/08:30pm 12.3 W 5 6 1020.8 - 0.0 - Cloudy 10 - - - -
24/08:00pm 12.6 WSW 5 7 1020.9 - 0.0 - Cloudy 10 - - - -
24/07:30pm 12.8 WSW 8 11 1021.0 - 0.0 - Partly cloudy 10 - - - -
24/07:00pm 13.4 SSW 2 5 1020.9 - 0.0 - Cloudy 10 - - - -
24/06:30pm 13.6 S 3 5 1020.8 - 0.0 - Cloudy 10 - - - -
24/06:00pm 13.7 SW 5 8 1020.9 - 0.0 - Cloudy 10 - - - -
24/05:30pm 13.6 SSW 6 10 1021.0 - 0.0 - Partly cloudy 10 - - - -
24/05:00pm 13.5 SSW 6 9 1021.1 - 0.0 - Cloudy 10 - - - -
24/04:30pm 14.1 SSW 7 11 1021.0 - 0.0 - Cloudy 10 - - - -
24/04:00pm 14.2 S 7 11 1021.2 - 0.0 - Cloudy 10 - - - -
24/03:30pm 14.5 S 8 13 1021.1 - 0.0 - Cloudy 10 - - - -
24/03:00pm 14.4 SSW 7 14 1021.1 - 0.0 - Cloudy 10 - - - -
24/02:30pm 15.0 SSW 8 12 1021.2 - 0.0 - Cloudy 10 - - - -
24/02:00pm 14.4 S 9 14 1021.3 - 0.0 - Cloudy 10 - - - -
24/01:30pm 14.8 S 8 12 1021.4 - 0.0 - Cloudy 10 - - - -
24/01:00pm 13.8 S 10 15 1021.7 - 0.0 - Partly cloudy 10 - - - -
24/12:30pm 13.5 S 8 13 1021.7 - 0.0 - Cloudy 10 - - - -
24/12:00pm 13.5 S 7 11 1021.7 - 0.0 - Cloudy 10 - - - -
24/11:30am 13.2 S 7 10 1021.8 - 0.0 - Cloudy 10 - - - -
24/11:00am 13.2 SSE 6 10 1021.7 - 0.0 - Cloudy 10 - - - -
24/10:30am 12.7 S 5 8 1021.6 - 0.0 - Cloudy 10 - - - -
24/10:00am 12.2 SSE 4 7 1021.3 - 0.0 - Cloudy 10 - - - -
24/09:30am 12.2 SSE 7 12 1021.1 - 0.0 - Cloudy 10 - - - -
24/09:00am 12.2 SSE 8 12 1020.8 - 1.2 - Cloudy 10 - - - -
24/08:30am 12.1 SSE 7 15 1020.3 - 1.2 - Cloudy 10 - - - -
24/08:00am 12.0 S 7 11 1020.0 - 1.2 - Cloudy 10 - - - -
24/07:30am 12.0 S 7 12 1019.7 - 1.2 - Cloudy 10 - - - -
24/07:00am 12.1 S 8 13 1019.4 - 1.2 - Cloudy 10 - - - -
24/06:30am 12.0 S 8 13 1019.2 - 1.2 - Cloudy 10 - - - -

Other Formats:

Comma delimited format used in spreadsheet applications
http://www.bom.gov.au/fwo/IDV60701/IDV60701.94828.axf

JavaScript Object Notation format (JSON) in row-major order
http://www.bom.gov.au/fwo/IDV60701/IDV60701.94828.json